Time;durP1;ratioP1;P1;durP2;ratioP2;P2;SDS_P1;SDS_P2;PMS_P1;PMS_P2;Temp;Humidity;BMP_temperature;BMP_pressure;BME280_temperature;BME280_humidity;BME280_pressure;Samples;Min_cycle;Max_cycle;Signal;HPM_P1;HPM_P2
2021/09/23 00:01:38;;;;;;;10.33;7.43;;;11.30;99.90;;;;;;5033377;28;20341;-67
2021/09/23 00:04:17;;;;;;;10.27;6.73;;;11.30;99.90;;;;;;5032157;28;20656;-66
2021/09/23 00:06:44;;;;;;;9.37;6.60;;;11.30;99.90;;;;;;5033321;28;20240;-67
2021/09/23 00:09:11;;;;;;;9.97;7.47;;;11.40;99.90;;;;;;5033852;28;20203;-67
2021/09/23 00:11:37;;;;;;;9.33;7.10;;;11.40;99.90;;;;;;5033222;28;20246;-67
2021/09/23 00:14:05;;;;;;;10.23;7.70;;;11.40;99.90;;;;;;5032682;28;20230;-66
2021/09/23 00:16:33;;;;;;;9.07;7.17;;;11.40;99.90;;;;;;5032604;28;20210;-67
2021/09/23 00:19:00;;;;;;;8.27;6.90;;;11.40;99.90;;;;;;5033241;28;20303;-67
2021/09/23 00:21:27;;;;;;;10.50;7.97;;;11.40;99.90;;;;;;5033054;28;20644;-67
2021/09/23 00:23:54;;;;;;;9.77;7.50;;;11.40;99.90;;;;;;5031766;28;20220;-67
2021/09/23 00:26:21;;;;;;;9.80;7.63;;;11.30;99.90;;;;;;5032524;28;20238;-67
2021/09/23 00:28:48;;;;;;;9.50;7.50;;;11.40;99.90;;;;;;5032114;28;20198;-67
2021/09/23 00:31:15;;;;;;;10.60;7.87;;;11.30;99.90;;;;;;5032377;28;20294;-67
2021/09/23 00:33:43;;;;;;;9.30;7.90;;;11.40;99.90;;;;;;5032941;28;20213;-67
2021/09/23 00:36:10;;;;;;;10.67;8.03;;;11.40;99.90;;;;;;5033149;28;20244;-67
2021/09/23 00:38:37;;;;;;;10.83;7.83;;;11.40;99.90;;;;;;5033066;28;20214;-67
2021/09/23 00:41:04;;;;;;;12.30;8.57;;;11.40;99.90;;;;;;5033262;28;20222;-66
2021/09/23 00:43:30;;;;;;;12.17;8.57;;;11.40;99.90;;;;;;5039828;28;20659;-67
2021/09/23 00:45:57;;;;;;;10.00;7.80;;;11.30;99.90;;;;;;5022345;28;20218;-67
2021/09/23 00:48:24;;;;;;;11.87;8.77;;;11.30;99.90;;;;;;5027120;28;20206;-67
2021/09/23 00:50:53;;;;;;;9.70;7.97;;;11.30;99.90;;;;;;5024085;28;20577;-67
2021/09/23 00:53:21;;;;;;;12.10;8.30;;;11.30;99.90;;;;;;5032160;28;20216;-68
2021/09/23 00:55:49;;;;;;;10.23;7.93;;;11.40;99.90;;;;;;5031808;28;20213;-68
2021/09/23 00:58:16;;;;;;;11.63;7.73;;;11.30;99.90;;;;;;5033080;28;20706;-67
2021/09/23 01:00:43;;;;;;;11.60;7.97;;;11.40;99.90;;;;;;5032361;28;20233;-66
2021/09/23 01:03:12;;;;;;;10.37;7.40;;;11.40;99.90;;;;;;5032568;28;20209;-69
2021/09/23 01:05:39;;;;;;;10.47;7.90;;;11.40;99.90;;;;;;5025829;28;20210;-67
2021/09/23 01:08:08;;;;;;;9.77;7.17;;;11.30;99.90;;;;;;5026275;28;20227;-67
2021/09/23 01:10:34;;;;;;;10.23;7.43;;;11.40;99.90;;;;;;5024433;28;20655;-66
2021/09/23 01:13:02;;;;;;;8.60;7.57;;;11.40;99.90;;;;;;5019716;28;20633;-67
2021/09/23 01:15:29;;;;;;;10.30;7.07;;;11.30;99.90;;;;;;5031365;28;20221;-66
2021/09/23 01:17:56;;;;;;;9.40;7.23;;;11.30;99.90;;;;;;5031684;28;20199;-67
2021/09/23 01:20:23;;;;;;;9.90;7.97;;;11.30;99.90;;;;;;5032224;28;20223;-67
2021/09/23 01:22:51;;;;;;;13.77;7.43;;;11.30;99.90;;;;;;5032093;28;20206;-67
2021/09/23 01:25:20;;;;;;;11.47;7.50;;;11.30;99.90;;;;;;5031884;28;20745;-67
2021/09/23 01:27:47;;;;;;;9.90;7.50;;;11.30;99.90;;;;;;5031533;28;20242;-67
2021/09/23 01:30:15;;;;;;;12.00;8.10;;;11.30;99.90;;;;;;5032135;28;20202;-67
2021/09/23 01:32:42;;;;;;;10.23;7.33;;;11.30;99.90;;;;;;5032119;28;20206;-68
2021/09/23 01:35:10;;;;;;;10.40;7.63;;;11.30;99.90;;;;;;5030495;28;20213;-67
2021/09/23 01:37:37;;;;;;;12.43;8.40;;;11.30;99.90;;;;;;5031769;28;20226;-67
2021/09/23 01:40:07;;;;;;;11.90;9.00;;;11.30;99.90;;;;;;5031561;28;20555;-66
2021/09/23 01:42:33;;;;;;;17.20;9.50;;;11.30;99.90;;;;;;5031818;28;20210;-67
2021/09/23 01:45:01;;;;;;;11.87;9.00;;;11.30;99.90;;;;;;5030481;28;20217;-69
2021/09/23 01:47:30;;;;;;;11.40;8.87;;;11.30;99.90;;;;;;5031259;28;20297;-67
2021/09/23 01:49:56;;;;;;;13.73;9.23;;;11.30;99.90;;;;;;5032068;28;20207;-67
2021/09/23 01:52:23;;;;;;;15.27;9.50;;;11.30;99.90;;;;;;5028348;28;20211;-67
2021/09/23 01:54:50;;;;;;;12.87;9.83;;;11.30;99.90;;;;;;5030965;28;20219;-67
2021/09/23 01:57:18;;;;;;;15.20;9.97;;;11.40;99.90;;;;;;5030860;28;20644;-67
2021/09/23 01:59:45;;;;;;;12.40;10.23;;;11.30;99.90;;;;;;5031449;28;20214;-67
2021/09/23 02:02:12;;;;;;;13.23;10.13;;;11.30;99.90;;;;;;5031570;28;20226;-67
2021/09/23 02:04:39;;;;;;;15.10;10.33;;;11.30;99.90;;;;;;5030728;28;20265;-67
2021/09/23 02:07:06;;;;;;;13.47;9.47;;;11.30;99.90;;;;;;5031342;28;20228;-67
2021/09/23 02:09:33;;;;;;;12.03;9.60;;;11.30;99.90;;;;;;5031428;28;20272;-67
2021/09/23 02:12:01;;;;;;;12.73;9.30;;;11.20;99.90;;;;;;5031876;28;20203;-67
2021/09/23 02:14:30;;;;;;;13.83;9.53;;;11.10;99.90;;;;;;5030632;28;20218;-67
2021/09/23 02:16:56;;;;;;;17.07;10.13;;;11.20;99.90;;;;;;5031310;28;20207;-68
2021/09/23 02:19:25;;;;;;;15.23;9.60;;;11.10;99.90;;;;;;5017572;28;20211;-67
2021/09/23 02:21:52;;;;;;;12.93;9.77;;;11.10;99.90;;;;;;5031274;28;20690;-67
2021/09/23 02:24:19;;;;;;;13.73;10.07;;;11.10;99.90;;;;;;5031092;28;20242;-68
2021/09/23 02:26:46;;;;;;;15.57;10.70;;;11.10;99.90;;;;;;5031201;28;20638;-68
2021/09/23 02:29:12;;;;;;;16.77;10.97;;;11.20;99.90;;;;;;5041237;28;20213;-67
2021/09/23 02:31:40;;;;;;;14.57;11.17;;;11.10;99.90;;;;;;5033259;28;20203;-67
2021/09/23 02:34:07;;;;;;;18.93;11.27;;;11.10;99.90;;;;;;5030261;28;20210;-68
2021/09/23 02:36:34;;;;;;;15.83;10.93;;;11.10;99.90;;;;;;5030725;28;21974;-67
2021/09/23 02:39:01;;;;;;;17.17;10.50;;;11.10;99.90;;;;;;5031227;28;20210;-67
2021/09/23 02:41:30;;;;;;;15.30;10.73;;;11.10;99.90;;;;;;5029986;28;20226;-67
2021/09/23 02:43:56;;;;;;;16.10;11.03;;;11.10;99.90;;;;;;5020299;28;20234;-66
2021/09/23 02:46:23;;;;;;;16.53;11.83;;;11.00;99.90;;;;;;5032784;28;20198;-66
2021/09/23 02:48:52;;;;;;;15.13;10.63;;;11.00;99.90;;;;;;5034783;28;20663;-68
2021/09/23 02:51:18;;;;;;;17.57;10.43;;;11.10;99.90;;;;;;5034673;28;20210;-68
2021/09/23 02:53:45;;;;;;;17.47;11.37;;;11.00;99.90;;;;;;5034158;28;20221;-66
2021/09/23 02:56:13;;;;;;;16.63;11.03;;;11.00;99.90;;;;;;5021608;28;20211;-68
2021/09/23 02:58:40;;;;;;;16.70;11.63;;;11.00;99.90;;;;;;5034678;28;20577;-66
2021/09/23 03:01:06;;;;;;;19.03;11.90;;;10.90;99.90;;;;;;5035041;28;20233;-68
2021/09/23 03:03:33;;;;;;;15.10;11.83;;;10.90;99.90;;;;;;5035096;28;20216;-67
2021/09/23 03:06:01;;;;;;;13.67;11.13;;;10.80;99.90;;;;;;5033374;28;20303;-67
2021/09/23 03:08:28;;;;;;;17.13;10.80;;;10.90;99.90;;;;;;5034291;28;20313;-67
2021/09/23 03:10:55;;;;;;;14.73;11.03;;;10.90;99.90;;;;;;5035010;28;20298;-67
2021/09/23 03:13:22;;;;;;;18.63;11.27;;;10.90;99.90;;;;;;5033980;28;20203;-67
2021/09/23 03:15:49;;;;;;;15.70;11.90;;;10.90;99.90;;;;;;5034187;28;21074;-67
2021/09/23 03:18:16;;;;;;;15.70;11.07;;;10.90;99.90;;;;;;5034697;28;20622;-67
2021/09/23 03:20:45;;;;;;;16.77;11.87;;;10.90;99.90;;;;;;5034199;28;20301;-66
2021/09/23 03:23:14;;;;;;;17.77;11.17;;;10.90;99.90;;;;;;5034101;28;20265;-67
2021/09/23 03:25:41;;;;;;;15.77;11.13;;;10.90;99.90;;;;;;5034145;28;20215;-67
2021/09/23 03:28:08;;;;;;;15.50;11.23;;;10.90;99.90;;;;;;5034482;28;20349;-68
2021/09/23 03:30:36;;;;;;;14.90;11.50;;;10.90;99.90;;;;;;5034223;28;20210;-68
2021/09/23 03:33:03;;;;;;;19.00;11.70;;;10.90;99.90;;;;;;5033594;28;20211;-67
2021/09/23 03:35:30;;;;;;;15.87;11.70;;;11.00;99.90;;;;;;5033232;28;20648;-68
2021/09/23 03:37:57;;;;;;;16.83;11.30;;;11.00;99.90;;;;;;5027664;28;20213;-68
2021/09/23 03:40:26;;;;;;;19.13;11.00;;;10.90;99.90;;;;;;5027803;28;20300;-67
2021/09/23 03:42:53;;;;;;;18.20;11.17;;;11.00;99.90;;;;;;5026936;28;20223;-67
2021/09/23 03:45:22;;;;;;;19.80;11.47;;;10.90;99.90;;;;;;5033055;28;20215;-67
2021/09/23 03:47:49;;;;;;;16.70;11.03;;;11.00;99.90;;;;;;5033377;28;20655;-68
2021/09/23 03:50:16;;;;;;;14.03;11.20;;;10.90;99.90;;;;;;5033157;28;20570;-68
2021/09/23 03:52:44;;;;;;;17.63;11.37;;;10.90;99.90;;;;;;5028024;28;20214;-67
2021/09/23 03:55:12;;;;;;;16.47;11.00;;;10.90;99.90;;;;;;5025524;28;20215;-66
2021/09/23 03:57:40;;;;;;;13.97;10.30;;;10.90;99.90;;;;;;5032891;28;20206;-67
2021/09/23 04:00:08;;;;;;;15.40;10.63;;;10.90;99.90;;;;;;5034003;28;20613;-67
2021/09/23 04:02:34;;;;;;;15.33;10.43;;;10.80;99.90;;;;;;5033328;28;20341;-67
2021/09/23 04:05:01;;;;;;;18.37;10.93;;;10.80;99.90;;;;;;5033474;28;20687;-68
2021/09/23 04:07:29;;;;;;;18.43;11.17;;;10.80;99.90;;;;;;5033498;28;20214;-69
2021/09/23 04:09:55;;;;;;;15.17;11.07;;;10.80;99.90;;;;;;5033572;28;20214;-67
2021/09/23 04:12:22;;;;;;;16.43;11.13;;;10.80;99.90;;;;;;5020369;28;20203;-67
2021/09/23 04:14:50;;;;;;;14.60;10.70;;;10.80;99.90;;;;;;5032333;28;20567;-67
2021/09/23 04:17:18;;;;;;;15.70;11.63;;;10.80;99.90;;;;;;5032895;28;20661;-67
2021/09/23 04:19:45;;;;;;;17.13;10.70;;;10.80;99.90;;;;;;5032886;28;20249;-67
2021/09/23 04:22:12;;;;;;;16.87;10.97;;;10.80;99.90;;;;;;5032795;28;20229;-67
2021/09/23 04:24:39;;;;;;;15.40;10.37;;;10.80;99.90;;;;;;5033082;28;20563;-67
2021/09/23 04:27:06;;;;;;;19.10;11.30;;;10.80;99.90;;;;;;5033045;28;20578;-68
2021/09/23 04:29:33;;;;;;;17.80;9.80;;;10.80;99.90;;;;;;5032618;28;20564;-68
2021/09/23 04:32:01;;;;;;;17.23;10.90;;;10.90;99.90;;;;;;5032548;28;20297;-67
2021/09/23 04:34:28;;;;;;;14.37;10.90;;;10.90;99.90;;;;;;5032710;28;20210;-69
2021/09/23 04:36:55;;;;;;;14.53;10.80;;;10.90;99.90;;;;;;5031925;28;20222;-68
2021/09/23 04:39:22;;;;;;;17.07;9.93;;;10.90;99.90;;;;;;5032677;28;20289;-68
2021/09/23 04:41:49;;;;;;;18.80;11.00;;;10.90;99.90;;;;;;5032434;28;20276;-67
2021/09/23 04:44:16;;;;;;;15.37;9.80;;;11.00;99.90;;;;;;5032137;28;20209;-67
2021/09/23 04:46:43;;;;;;;16.23;10.73;;;10.90;99.90;;;;;;5021609;28;20691;-67
2021/09/23 04:49:11;;;;;;;16.27;10.57;;;11.00;99.90;;;;;;5032263;28;20203;-67
2021/09/23 04:51:38;;;;;;;15.77;9.83;;;11.00;99.90;;;;;;5032948;28;20301;-68
2021/09/23 04:54:06;;;;;;;16.60;10.43;;;11.00;99.90;;;;;;5031877;28;20213;-67
2021/09/23 04:56:34;;;;;;;16.90;10.33;;;11.10;99.90;;;;;;5032794;28;20223;-67
2021/09/23 04:59:01;;;;;;;14.27;10.17;;;11.10;99.90;;;;;;5025083;28;20217;-69
2021/09/23 05:01:27;;;;;;;14.97;10.47;;;11.10;99.90;;;;;;5032417;28;20228;-67
2021/09/23 05:03:56;;;;;;;15.03;10.73;;;11.20;99.90;;;;;;5032091;28;20224;-68
2021/09/23 05:06:24;;;;;;;14.30;9.77;;;11.20;99.90;;;;;;5030228;28;20234;-67
2021/09/23 05:08:51;;;;;;;14.90;10.50;;;11.20;99.90;;;;;;5029533;28;20631;-67
2021/09/23 05:11:18;;;;;;;16.63;11.53;;;11.20;99.90;;;;;;5032862;28;20213;-67
2021/09/23 05:13:44;;;;;;;14.23;10.77;;;11.20;99.90;;;;;;5031371;28;20206;-68
2021/09/23 05:16:11;;;;;;;17.90;11.17;;;11.30;99.90;;;;;;5031736;28;20224;-67
2021/09/23 05:18:38;;;;;;;14.57;10.63;;;11.20;99.90;;;;;;5030915;28;20206;-70
2021/09/23 05:21:05;;;;;;;16.90;10.37;;;11.40;99.90;;;;;;5033224;28;20286;-68
2021/09/23 05:23:33;;;;;;;14.57;11.40;;;11.50;99.90;;;;;;5031849;28;20635;-66
2021/09/23 05:26:00;;;;;;;18.17;11.10;;;11.40;99.90;;;;;;5031555;28;20236;-67
2021/09/23 05:28:27;;;;;;;17.00;10.57;;;11.40;99.90;;;;;;5031642;28;20238;-64
2021/09/23 05:30:54;;;;;;;18.80;10.70;;;11.50;99.90;;;;;;5031861;28;20199;-68
2021/09/23 05:33:21;;;;;;;14.30;10.07;;;11.50;99.90;;;;;;5030917;28;20557;-66
2021/09/23 05:35:47;;;;;;;16.47;11.07;;;11.50;99.90;;;;;;5023838;28;20300;-68
2021/09/23 05:38:14;;;;;;;19.87;11.03;;;11.60;99.90;;;;;;5028220;28;20300;-69
2021/09/23 05:40:43;;;;;;;17.97;10.43;;;11.60;99.90;;;;;;5023380;28;20213;-69
2021/09/23 05:43:09;;;;;;;13.97;10.30;;;11.60;99.90;;;;;;5026671;28;20284;-68
2021/09/23 05:45:36;;;;;;;18.27;11.33;;;11.60;99.90;;;;;;5022812;28;20217;-69
2021/09/23 05:48:03;;;;;;;19.87;11.03;;;11.60;99.90;;;;;;5032441;28;20206;-68
2021/09/23 05:50:30;;;;;;;16.37;11.40;;;11.70;99.90;;;;;;5031712;28;20198;-66
2021/09/23 05:52:57;;;;;;;18.60;11.40;;;11.70;99.90;;;;;;5031784;28;20206;-67
2021/09/23 05:55:25;;;;;;;16.33;10.00;;;11.70;99.90;;;;;;5031425;28;20213;-68
2021/09/23 05:57:53;;;;;;;14.97;10.00;;;11.80;99.90;;;;;;5017827;28;20214;-67
2021/09/23 06:00:21;;;;;;;15.47;10.07;;;11.80;99.90;;;;;;5031956;28;20221;-67
2021/09/23 06:02:48;;;;;;;17.57;10.17;;;11.70;99.90;;;;;;5035428;28;20330;-67
2021/09/23 06:05:17;;;;;;;14.57;9.53;;;11.80;99.90;;;;;;5033947;28;20209;-69
2021/09/23 06:07:44;;;;;;;12.73;9.80;;;11.70;99.90;;;;;;5032117;28;20648;-67
2021/09/23 06:10:12;;;;;;;14.37;9.50;;;11.80;99.90;;;;;;5031126;28;20198;-67
2021/09/23 06:12:39;;;;;;;12.60;9.40;;;11.80;99.90;;;;;;5035225;28;20206;-67
2021/09/23 06:15:09;;;;;;;15.90;9.90;;;11.70;99.90;;;;;;5030233;28;20225;-68
2021/09/23 06:17:36;;;;;;;15.40;9.73;;;11.70;99.90;;;;;;5018701;28;20238;-67
2021/09/23 06:20:03;;;;;;;16.60;10.27;;;11.70;99.90;;;;;;5033630;28;20202;-66
2021/09/23 06:22:30;;;;;;;15.93;10.07;;;11.80;99.90;;;;;;5035181;28;20748;-66
2021/09/23 06:24:57;;;;;;;14.30;10.07;;;11.80;99.90;;;;;;5034213;28;20214;-67
2021/09/23 06:27:24;;;;;;;15.03;9.77;;;11.80;99.90;;;;;;5033486;28;20703;-67
2021/09/23 06:29:51;;;;;;;15.07;10.53;;;11.90;99.90;;;;;;5032221;28;20213;-68
2021/09/23 06:32:19;;;;;;;18.67;10.60;;;12.00;99.90;;;;;;5035932;28;20262;-67
2021/09/23 06:34:46;;;;;;;15.47;9.50;;;12.00;99.90;;;;;;5032699;28;20232;-67
2021/09/23 06:37:13;;;;;;;15.30;9.77;;;12.00;99.90;;;;;;5031863;28;20229;-66
2021/09/23 06:39:40;;;;;;;18.93;10.53;;;12.10;99.90;;;;;;5034767;28;20218;-67
2021/09/23 06:42:08;;;;;;;17.30;10.10;;;12.10;99.90;;;;;;5032374;28;20596;-67
2021/09/23 06:44:35;;;;;;;16.50;10.10;;;12.10;99.90;;;;;;5034284;28;20257;-67
2021/09/23 06:47:02;;;;;;;14.23;10.17;;;12.10;99.90;;;;;;5033326;28;20209;-67
2021/09/23 06:49:30;;;;;;;18.03;10.37;;;12.10;99.90;;;;;;5033410;28;20623;-67
2021/09/23 06:51:57;;;;;;;16.87;10.60;;;12.10;99.90;;;;;;5035550;28;20202;-68
2021/09/23 06:54:24;;;;;;;20.00;11.07;;;12.10;99.90;;;;;;5034576;28;20230;-68
2021/09/23 06:56:51;;;;;;;17.47;10.93;;;12.20;99.90;;;;;;5035178;28;20567;-67
2021/09/23 06:59:17;;;;;;;21.60;11.80;;;12.20;99.90;;;;;;5033909;28;20213;-67
2021/09/23 07:01:44;;;;;;;18.07;11.17;;;12.30;99.90;;;;;;5025060;28;20240;-66
2021/09/23 07:04:11;;;;;;;20.40;11.30;;;12.30;99.90;;;;;;5035041;28;20306;-67
2021/09/23 07:06:40;;;;;;;17.23;11.93;;;12.80;99.90;;;;;;5034569;28;20207;-68
2021/09/23 07:09:07;;;;;;;20.53;11.57;;;12.40;99.90;;;;;;5034832;28;20655;-66
2021/09/23 07:11:35;;;;;;;19.47;12.73;;;12.40;99.90;;;;;;5034851;28;20214;-67
2021/09/23 07:14:02;;;;;;;16.30;11.70;;;12.40;99.90;;;;;;5030633;28;20468;-67
2021/09/23 07:16:29;;;;;;;18.87;12.37;;;12.50;99.90;;;;;;5034850;28;20207;-68
2021/09/23 07:18:56;;;;;;;16.03;10.80;;;12.50;99.90;;;;;;5034382;28;20325;-68
2021/09/23 07:21:23;;;;;;;17.60;11.80;;;12.50;99.90;;;;;;5033732;28;20333;-69
2021/09/23 07:23:51;;;;;;;21.37;12.23;;;12.60;99.90;;;;;;5035527;28;20230;-68
2021/09/23 07:26:19;;;;;;;17.10;12.30;;;12.70;99.90;;;;;;5034840;28;20202;-69
2021/09/23 07:28:46;;;;;;;22.07;13.23;;;12.80;99.90;;;;;;5033673;28;20240;-67
2021/09/23 07:31:13;;;;;;;21.30;12.80;;;12.80;99.90;;;;;;5033624;28;20209;-68
2021/09/23 07:33:40;;;;;;;18.43;13.40;;;12.80;99.90;;;;;;5034499;28;20215;-67
2021/09/23 07:36:07;;;;;;;21.47;13.40;;;13.00;99.90;;;;;;5034272;28;20304;-68
2021/09/23 07:38:34;;;;;;;22.13;13.97;;;13.10;99.90;;;;;;5034672;28;20218;-67
2021/09/23 07:41:02;;;;;;;23.93;13.87;;;13.10;99.90;;;;;;5034869;28;20217;-67
2021/09/23 07:43:29;;;;;;;22.80;13.10;;;13.20;99.90;;;;;;5033337;28;20309;-68
2021/09/23 07:45:56;;;;;;;21.60;14.33;;;13.30;99.90;;;;;;5033909;28;20203;-67
2021/09/23 07:48:23;;;;;;;20.93;14.77;;;13.40;99.90;;;;;;5034317;28;20305;-67
2021/09/23 07:50:50;;;;;;;17.57;12.83;;;13.40;99.90;;;;;;5033501;28;20316;-67
2021/09/23 07:53:16;;;;;;;19.40;13.97;;;13.50;99.90;;;;;;5031839;28;20283;-67
2021/09/23 07:55:43;;;;;;;22.10;13.80;;;13.60;99.90;;;;;;5034742;28;20207;-67
2021/09/23 07:58:12;;;;;;;20.60;13.97;;;13.70;99.90;;;;;;5029805;28;20297;-68
2021/09/23 08:00:38;;;;;;;20.73;13.33;;;13.80;99.90;;;;;;5027834;28;22011;-69
2021/09/23 08:03:06;;;;;;;23.80;13.60;;;13.90;99.90;;;;;;5028443;28;20250;-67
2021/09/23 08:05:32;;;;;;;22.50;13.87;;;14.00;99.90;;;;;;5032341;28;20246;-68
2021/09/23 08:08:01;;;;;;;22.93;14.37;;;14.10;99.90;;;;;;5040042;28;20310;-69
2021/09/23 08:10:28;;;;;;;22.90;13.73;;;14.20;99.90;;;;;;5032703;28;20261;-68
2021/09/23 08:12:55;;;;;;;24.77;13.93;;;14.50;99.90;;;;;;5033544;28;20267;-70
2021/09/23 08:15:24;;;;;;;20.27;13.10;;;14.60;99.90;;;;;;5038830;28;20214;-69
2021/09/23 08:17:51;;;;;;;19.27;12.63;;;14.70;99.90;;;;;;5032248;28;20673;-69
2021/09/23 08:20:17;;;;;;;20.47;13.93;;;14.80;99.90;;;;;;5033189;28;20210;-70
2021/09/23 08:22:45;;;;;;;17.53;12.60;;;14.80;99.90;;;;;;5033360;28;20226;-70
2021/09/23 08:25:12;;;;;;;17.37;12.67;;;14.90;99.90;;;;;;5032283;28;20241;-69
2021/09/23 08:27:39;;;;;;;21.37;12.10;;;15.00;99.90;;;;;;5029099;28;20650;-70
2021/09/23 08:30:08;;;;;;;18.83;12.33;;;15.10;99.90;;;;;;5032985;28;20664;-69
2021/09/23 08:32:36;;;;;;;18.03;11.67;;;15.40;99.90;;;;;;5032070;28;20217;-69
2021/09/23 08:35:06;;;;;;;17.17;11.10;;;15.60;99.90;;;;;;5021478;28;20204;-70
2021/09/23 08:37:33;;;;;;;16.27;11.07;;;15.80;99.90;;;;;;5035821;28;20787;-70
2021/09/23 08:40:00;;;;;;;17.07;12.53;;;16.10;99.90;;;;;;5045263;28;20207;-68
2021/09/23 08:42:28;;;;;;;19.93;11.73;;;16.30;99.90;;;;;;5030348;28;20297;-69
2021/09/23 08:44:56;;;;;;;21.33;12.83;;;16.50;99.90;;;;;;5034602;28;20676;-69
2021/09/23 08:47:23;;;;;;;16.03;10.90;;;16.70;99.90;;;;;;5033160;28;20616;-68
2021/09/23 08:49:51;;;;;;;16.17;11.00;;;17.00;99.90;;;;;;5033115;28;20210;-69
2021/09/23 08:52:18;;;;;;;17.07;9.83;;;17.20;99.90;;;;;;5037658;28;20217;-70
2021/09/23 08:54:45;;;;;;;16.87;9.63;;;17.30;99.90;;;;;;5040141;28;20214;-68
2021/09/23 08:57:12;;;;;;;14.53;9.60;;;17.30;99.90;;;;;;5043121;28;20212;-68
2021/09/23 08:59:39;;;;;;;13.40;9.10;;;17.40;99.90;;;;;;5035445;28;20583;-69
2021/09/23 09:02:21;;;;;;;15.73;9.83;;;17.40;99.90;;;;;;5044615;28;20206;-71
2021/09/23 09:04:54;;;;;;;14.47;9.47;;;17.50;99.90;;;;;;5037351;28;20293;-69
2021/09/23 09:07:25;;;;;;;19.53;9.23;;;17.70;99.90;;;;;;5041092;28;20198;-69
2021/09/23 09:09:52;;;;;;;16.55;8.90;;;17.90;99.90;;;;;;5038388;28;20273;-69
2021/09/23 09:12:19;;;;;;;16.40;9.63;;;18.20;99.90;;;;;;5038421;28;20213;-70
2021/09/23 09:14:48;;;;;;;12.55;7.90;;;19.10;99.90;;;;;;5038250;28;20213;-69
2021/09/23 09:17:17;;;;;;;15.07;7.72;;;21.00;99.90;;;;;;5037578;28;20202;-71
2021/09/23 09:19:48;;;;;;;15.05;8.00;;;21.50;99.90;;;;;;5034868;28;20205;-70
2021/09/23 09:22:18;;;;;;;13.75;7.43;;;21.40;99.90;;;;;;5029399;28;20297;-70
2021/09/23 09:24:54;;;;;;;13.05;8.60;;;21.10;99.90;;;;;;5033349;28;20698;-71
2021/09/23 09:27:29;;;;;;;14.23;8.45;;;20.90;99.90;;;;;;5041501;28;20233;-70
2021/09/23 09:29:57;;;;;;;15.38;8.07;;;20.40;99.90;;;;;;5046169;28;20212;-69
2021/09/23 09:32:36;;;;;;;17.15;8.27;;;19.90;99.90;;;;;;5033735;28;20213;-69
2021/09/23 09:35:04;;;;;;;13.70;7.85;;;19.60;99.90;;;;;;5042770;28;20220;-69
2021/09/23 09:37:33;;;;;;;18.65;8.02;;;19.50;99.90;;;;;;5047699;28;20234;-69
2021/09/23 09:40:01;;;;;;;12.15;7.65;;;20.10;99.90;;;;;;5045756;28;20658;-69
2021/09/23 09:42:29;;;;;;;11.70;7.20;;;21.40;99.90;;;;;;5047155;28;20205;-70
2021/09/23 09:44:57;;;;;;;11.77;7.13;;;22.30;99.90;;;;;;5041106;28;20203;-69
2021/09/23 09:47:28;;;;;;;12.55;7.43;;;22.10;99.70;;;;;;5041328;28;20213;-69
2021/09/23 09:49:55;;;;;;;12.77;7.75;;;21.80;99.70;;;;;;5039855;28;20238;-68
2021/09/23 09:52:29;;;;;;;14.07;7.18;;;21.40;99.90;;;;;;5041721;28;20206;-69
2021/09/23 09:55:02;;;;;;;10.98;7.53;;;21.10;99.90;;;;;;5045661;28;20642;-69
2021/09/23 09:57:29;;;;;;;15.60;7.35;;;20.90;99.90;;;;;;5036690;28;20202;-69
2021/09/23 09:59:59;;;;;;;12.20;7.75;;;20.70;99.90;;;;;;5046228;28;20297;-69
2021/09/23 10:02:27;;;;;;;10.55;6.65;;;20.40;99.90;;;;;;5046984;28;20736;-70
2021/09/23 10:04:58;;;;;;;14.65;7.30;;;20.10;99.90;;;;;;5048296;28;20222;-69
2021/09/23 10:07:27;;;;;;;11.98;6.38;;;20.30;99.90;;;;;;5033271;28;20594;-69
2021/09/23 10:09:55;;;;;;;10.40;6.13;;;20.70;99.90;;;;;;5045080;28;20302;-69
2021/09/23 10:12:25;;;;;;;12.32;6.32;;;21.00;99.90;;;;;;5049648;28;20565;-70
2021/09/23 10:14:52;;;;;;;9.30;5.95;;;20.90;99.90;;;;;;5037261;28;20209;-69
2021/09/23 10:17:19;;;;;;;9.57;5.10;;;20.60;99.90;;;;;;5041389;28;20574;-70
2021/09/23 10:19:46;;;;;;;11.02;4.85;;;21.30;99.90;;;;;;5042328;28;20216;-70
2021/09/23 10:22:15;;;;;;;8.90;4.80;;;22.60;99.90;;;;;;5034861;28;20215;-70
2021/09/23 10:24:44;;;;;;;7.32;4.30;;;23.90;97.00;;;;;;5042299;28;20237;-69
2021/09/23 10:29:59;;;;;;;8.90;4.03;;;25.20;93.50;;;;;;5027426;28;20202;-68
2021/09/23 10:32:27;;;;;;;7.28;4.07;;;25.60;90.60;;;;;;5031206;28;20206;-68
2021/09/23 10:34:54;;;;;;;6.63;3.83;;;25.10;87.30;;;;;;5030520;28;20206;-70
2021/09/23 10:37:22;;;;;;;8.35;4.28;;;24.30;88.00;;;;;;5039860;28;20240;-68
2021/09/23 10:39:49;;;;;;;5.57;3.58;;;23.40;89.70;;;;;;5034085;28;20230;-68
2021/09/23 10:42:20;;;;;;;10.30;4.15;;;22.60;91.20;;;;;;5034307;28;20271;-69
2021/09/23 10:44:48;;;;;;;5.72;3.58;;;22.10;92.40;;;;;;5033453;28;20225;-70
2021/09/23 10:47:25;;;;;;;5.97;3.10;;;21.70;93.70;;;;;;5035342;28;20210;-70
2021/09/23 10:49:53;;;;;;;7.40;3.20;;;21.60;94.10;;;;;;5034426;28;20581;-70
2021/09/23 10:52:21;;;;;;;4.55;3.10;;;21.70;94.40;;;;;;5031376;28;20309;-69
2021/09/23 10:54:51;;;;;;;6.68;2.75;;;21.60;93.00;;;;;;5030321;28;20302;-67
2021/09/23 10:57:19;;;;;;;5.50;2.75;;;21.30;93.00;;;;;;5030317;28;20256;-69
2021/09/23 10:59:47;;;;;;;5.15;3.80;;;20.90;93.40;;;;;;5029721;28;20206;-71
2021/09/23 11:02:26;;;;;;;6.57;3.25;;;20.70;93.90;;;;;;5030341;28;20624;-71
2021/09/23 11:04:54;;;;;;;8.18;3.53;;;20.40;94.20;;;;;;5028990;28;20332;-72
2021/09/23 11:07:22;;;;;;;3.28;2.97;;;20.50;95.00;;;;;;5038473;28;20202;-71
2021/09/23 11:10:11;;;;;;;4.45;2.42;;;20.40;94.90;;;;;;5028183;28;20207;-70
2021/09/23 11:12:39;;;;;;;5.78;3.28;;;20.20;95.30;;;;;;5033293;28;20286;-71
2021/09/23 11:15:08;;;;;;;4.65;2.80;;;20.10;95.60;;;;;;5027383;28;20195;-71
2021/09/23 11:17:38;;;;;;;5.75;3.20;;;19.90;95.70;;;;;;5032946;28;20293;-71
2021/09/23 11:20:08;;;;;;;4.78;2.92;;;19.70;95.80;;;;;;5040641;28;20289;-71
2021/09/23 11:22:37;;;;;;;5.18;2.70;;;19.60;96.30;;;;;;5033980;28;20211;-69
2021/09/23 11:25:07;;;;;;;5.75;3.58;;;19.40;96.60;;;;;;5048336;28;20226;-70
2021/09/23 11:27:35;;;;;;;6.53;3.50;;;19.20;97.30;;;;;;5031507;28;20277;-69
2021/09/23 11:30:02;;;;;;;9.02;3.58;;;19.00;97.50;;;;;;5034789;28;20217;-70
2021/09/23 11:32:29;;;;;;;5.38;2.95;;;19.00;98.10;;;;;;5031637;28;20694;-71
2021/09/23 11:35:01;;;;;;;11.82;3.95;;;18.80;98.50;;;;;;5029493;28;20621;-72
2021/09/23 11:37:30;;;;;;;6.03;3.28;;;18.70;98.90;;;;;;5040081;28;20230;-72
2021/09/23 11:39:58;;;;;;;7.18;3.30;;;18.50;99.40;;;;;;5045360;28;20246;-71
2021/09/23 11:42:29;;;;;;;7.95;3.42;;;18.40;99.90;;;;;;5034444;28;20225;-73
2021/09/23 11:45:06;;;;;;;6.95;3.65;;;18.20;99.90;;;;;;5035076;28;20686;-70
2021/09/23 11:47:33;;;;;;;6.20;3.23;;;18.10;99.90;;;;;;5035307;28;20297;-69
2021/09/23 11:50:01;;;;;;;7.30;3.30;;;18.00;99.90;;;;;;5039274;28;20636;-69
2021/09/23 11:52:33;;;;;;;5.18;3.80;;;17.90;99.90;;;;;;5034064;28;20640;-70
2021/09/23 11:55:01;;;;;;;6.20;3.50;;;17.80;99.90;;;;;;5041185;28;20194;-68
2021/09/23 11:57:29;;;;;;;7.22;3.47;;;17.70;99.90;;;;;;5043294;28;20210;-69
2021/09/23 11:59:57;;;;;;;9.25;4.05;;;17.60;99.90;;;;;;5033809;28;20691;-69
2021/09/23 12:02:24;;;;;;;7.72;3.83;;;17.60;99.90;;;;;;5033659;28;20209;-67
2021/09/23 12:04:54;;;;;;;9.43;4.20;;;17.50;99.90;;;;;;5035053;28;20230;-68
2021/09/23 12:07:23;;;;;;;11.98;4.32;;;17.50;99.90;;;;;;5048195;28;20216;-69
2021/09/23 12:10:06;;;;;;;10.20;4.17;;;17.40;99.90;;;;;;5035186;28;20207;-69
2021/09/23 12:12:33;;;;;;;6.15;3.97;;;17.40;99.90;;;;;;5033141;28;20221;-70
2021/09/23 12:15:00;;;;;;;10.17;4.23;;;17.30;99.90;;;;;;5035014;28;20285;-70
2021/09/23 12:17:26;;;;;;;6.77;4.23;;;17.30;99.90;;;;;;5028134;28;20206;-70
2021/09/23 12:19:54;;;;;;;8.17;3.70;;;17.30;99.90;;;;;;5039868;28;20306;-68
2021/09/23 12:22:30;;;;;;;9.17;4.00;;;17.30;99.90;;;;;;5036253;28;20220;-69
2021/09/23 12:24:57;;;;;;;8.53;4.33;;;17.20;99.90;;;;;;5034954;28;20285;-70
2021/09/23 12:27:25;;;;;;;7.87;4.23;;;17.20;99.90;;;;;;5034789;28;20242;-69
2021/09/23 12:29:56;;;;;;;5.90;3.70;;;17.20;99.90;;;;;;5031199;28;20223;-68
2021/09/23 12:32:31;;;;;;;6.90;3.87;;;17.20;99.90;;;;;;5033885;28;20226;-69
2021/09/23 12:34:58;;;;;;;10.37;4.80;;;17.30;99.90;;;;;;5041309;28;20711;-73
2021/09/23 12:37:25;;;;;;;7.17;4.30;;;17.10;99.90;;;;;;5035049;28;20248;-71
2021/09/23 12:39:53;;;;;;;8.90;4.97;;;17.10;99.90;;;;;;5028443;28;20203;-72